Time;durP1;ratioP1;P1;durP2;ratioP2;P2;SDS_P1;SDS_P2;PMS_P1;PMS_P2;Temp;Humidity;BMP_temperature;BMP_pressure;BME280_temperature;BME280_humidity;BME280_pressure;Samples;Min_cycle;Max_cycle;Signal;HPM_P1;HPM_P2
2022/08/14 00:02:06;;;;;;;13.38;12.07;;;;;;;18.63;84.28;96773.94;1659906;86;25245;-76
2022/08/14 00:04:34;;;;;;;13.60;12.20;;;;;;;18.64;84.25;96772.02;1686965;85;25681;-75
2022/08/14 00:07:03;;;;;;;13.75;12.30;;;;;;;18.64;84.23;96770.11;1690030;83;25696;-76
2022/08/14 00:09:30;;;;;;;14.03;12.53;;;;;;;18.64;84.22;96767.38;1666049;85;25808;-76
2022/08/14 00:11:57;;;;;;;12.43;11.10;;;;;;;18.65;84.21;96769.56;1665844;86;28160;-77
2022/08/14 00:14:26;;;;;;;14.33;12.82;;;;;;;18.65;84.18;96768.20;1665925;86;25721;-76
2022/08/14 00:16:54;;;;;;;14.20;11.28;;;;;;;18.65;84.18;96769.02;1666019;86;25852;-75
2022/08/14 00:19:21;;;;;;;14.95;11.93;;;;;;;18.66;84.16;96764.38;1666040;86;25804;-75
2022/08/14 00:21:50;;;;;;;14.30;12.05;;;;;;;18.67;84.15;96757.81;1666053;86;25838;-76
2022/08/14 00:24:19;;;;;;;13.48;12.13;;;;;;;18.66;84.11;96758.91;1641185;87;27391;-76
2022/08/14 00:26:46;;;;;;;14.33;12.73;;;;;;;18.67;84.13;96759.17;1641222;87;26061;-75
2022/08/14 00:29:12;;;;;;;14.28;11.55;;;;;;;18.65;84.17;96754.53;1641313;87;25826;-75
2022/08/14 00:31:39;;;;;;;14.25;12.78;;;;;;;18.65;84.17;96757.27;1641216;87;25786;-75
2022/08/14 00:34:06;;;;;;;13.90;12.50;;;;;;;18.64;84.24;96758.36;1638500;86;25825;-76
2022/08/14 00:36:33;;;;;;;13.93;12.63;;;;;;;18.63;84.24;96754.80;1633636;87;27442;-75
2022/08/14 00:38:59;;;;;;;13.18;11.88;;;;;;;18.62;84.22;96750.43;1633981;87;25813;-75
2022/08/14 00:41:31;;;;;;;14.65;13.18;;;;;;;18.62;84.27;96744.14;1634147;86;25761;-75
2022/08/14 00:43:59;;;;;;;13.03;11.73;;;;;;;18.60;84.29;96744.97;1634321;87;25659;-75
2022/08/14 00:46:25;;;;;;;13.48;12.00;;;;;;;18.61;84.33;96740.59;1633956;87;25801;-75
2022/08/14 00:48:52;;;;;;;15.03;11.88;;;;;;;18.61;84.34;96739.77;1634011;87;26922;-74
2022/08/14 00:51:20;;;;;;;16.48;12.40;;;;;;;18.62;84.31;96732.66;1633685;87;25801;-75
2022/08/14 00:53:49;;;;;;;13.98;12.28;;;;;;;18.61;84.30;96730.20;1633987;87;25363;-74
2022/08/14 00:56:17;;;;;;;13.38;11.22;;;;;;;18.61;84.33;96737.04;1641347;87;25797;-75
2022/08/14 00:58:45;;;;;;;12.73;11.40;;;;;;;18.61;84.32;96737.04;1684421;85;25786;-74
2022/08/14 01:01:13;;;;;;;12.25;11.03;;;;;;;18.59;84.34;96734.61;1684274;85;27359;-75
2022/08/14 01:03:41;;;;;;;14.45;11.68;;;;;;;18.58;84.38;96732.16;1684175;85;25898;-75
2022/08/14 01:06:11;;;;;;;12.88;11.55;;;;;;;18.57;84.41;96726.38;1674231;85;25792;-75
2022/08/14 01:08:38;;;;;;;14.05;12.07;;;;;;;18.57;84.41;96722.28;1706685;84;25768;-75
2022/08/14 01:11:06;;;;;;;12.33;11.12;;;;;;;18.56;84.44;96727.48;1706884;84;25906;-75
2022/08/14 01:13:37;;;;;;;12.40;11.10;;;;;;;18.54;84.45;96728.30;1706608;84;28084;-76
2022/08/14 01:16:08;;;;;;;11.55;10.55;;;;;;;18.55;84.51;96728.02;1706584;84;25776;-74
2022/08/14 01:21:33;;;;;;;11.03;9.93;;;;;;;18.56;84.51;96727.48;1747176;80;25806;-75
2022/08/14 01:24:01;;;;;;;10.93;9.83;;;;;;;18.54;84.53;96728.30;1777498;80;26347;-75
2022/08/14 01:26:28;;;;;;;11.70;9.90;;;;;;;18.55;84.62;96728.57;1777552;80;28053;-75
2022/08/14 01:28:58;;;;;;;10.98;9.80;;;;;;;18.56;84.55;96728.84;1777176;80;25654;-75
2022/08/14 01:31:29;;;;;;;11.18;10.10;;;;;;;18.56;84.55;96734.31;1777491;80;25251;-75
2022/08/14 01:34:00;;;;;;;11.18;9.63;;;;;;;18.56;84.52;96728.84;1777482;79;25752;-76
2022/08/14 01:36:35;;;;;;;10.68;9.65;;;;;;;18.56;84.58;96731.58;1774840;80;26361;-75
2022/08/14 01:38:57;;;;;;;10.60;9.55;;;;;;;18.57;84.60;96727.75;1767976;80;27422;-76
2022/08/14 01:41:26;;;;;;;10.58;9.48;;;;;;;18.57;84.63;96723.10;1761904;81;25832;-78
2022/08/14 01:44:00;;;;;;;10.88;9.88;;;;;;;18.60;84.60;96724.47;1761886;81;25695;-77
2022/08/14 01:46:31;;;;;;;11.03;9.93;;;;;;;18.60;84.60;96727.20;1761650;81;25890;-75
2022/08/14 01:48:58;;;;;;;11.80;10.68;;;;;;;18.61;84.54;96724.73;1762008;80;25260;-76
2022/08/14 01:51:27;;;;;;;12.78;11.57;;;;;;;18.62;84.54;96724.47;1762195;80;27488;-77
2022/08/14 01:54:01;;;;;;;13.25;11.60;;;;;;;18.63;84.49;96721.19;1761976;80;25683;-79
2022/08/14 01:59:10;;;;;;;12.53;11.33;;;;;;;18.61;84.51;96720.64;1663031;86;26384;-75
2022/08/14 02:01:37;;;;;;;13.55;12.15;;;;;;;18.59;84.54;96717.39;1663301;86;25727;-77
2022/08/14 02:04:05;;;;;;;16.50;13.43;;;;;;;18.58;84.63;96720.67;1663255;86;27576;-77
2022/08/14 02:06:31;;;;;;;14.40;12.90;;;;;;;18.59;84.64;96714.66;1663147;86;25861;-75
2022/08/14 02:09:01;;;;;;;13.30;12.00;;;;;;;18.60;84.61;96705.34;1663282;86;25760;-76
2022/08/14 02:11:26;;;;;;;13.85;12.55;;;;;;;18.59;84.65;96709.19;1663445;86;25805;-77
2022/08/14 02:14:00;;;;;;;14.47;12.98;;;;;;;18.58;84.63;96714.39;1663260;86;25773;-76
2022/08/14 02:16:32;;;;;;;13.08;11.78;;;;;;;18.59;84.63;96713.30;1663331;86;27391;-76
2022/08/14 02:19:03;;;;;;;13.53;12.15;;;;;;;18.59;84.60;96719.58;1663308;86;25835;-76
2022/08/14 02:21:31;;;;;;;14.20;12.73;;;;;;;18.58;84.61;96712.47;1663382;86;25733;-75
2022/08/14 02:24:01;;;;;;;14.78;13.28;;;;;;;18.53;84.70;96707.53;1663249;86;25833;-76
2022/08/14 02:26:34;;;;;;;15.95;14.33;;;;;;;18.49;84.76;96709.17;1662965;86;26300;-74
2022/08/14 02:29:08;;;;;;;14.43;13.08;;;;;;;18.50;84.83;96710.81;1663317;86;28400;-74
2022/08/14 02:31:39;;;;;;;16.73;14.95;;;;;;;18.50;84.84;96706.71;1663318;86;26094;-75
2022/08/14 02:34:17;;;;;;;19.42;17.20;;;;;;;18.51;84.87;96704.25;1663021;86;25860;-75
2022/08/14 02:36:47;;;;;;;23.65;18.10;;;;;;;18.51;84.89;96700.15;1600232;89;25903;-76
2022/08/14 02:39:15;;;;;;;22.35;19.15;;;;;;;18.50;84.87;96695.23;1600649;89;25829;-76
2022/08/14 02:41:42;;;;;;;21.27;17.57;;;;;;;18.49;84.93;96702.34;1600704;89;28261;-75
2022/08/14 02:44:11;;;;;;;20.60;18.40;;;;;;;18.46;85.00;96698.82;1600337;89;25809;-74
2022/08/14 02:46:41;;;;;;;24.40;20.55;;;;;;;18.44;85.05;96699.09;1600632;89;25869;-75
2022/08/14 02:49:07;;;;;;;23.77;21.30;;;;;;;18.43;85.10;96698.83;1600675;89;25982;-75
2022/08/14 02:51:35;;;;;;;25.10;21.52;;;;;;;18.46;85.11;96704.28;1600428;89;25770;-75
2022/08/14 02:54:04;;;;;;;26.02;22.62;;;;;;;18.47;85.11;96703.19;1602074;89;27385;-76
2022/08/14 02:56:31;;;;;;;25.92;23.12;;;;;;;18.48;85.09;96697.42;1655731;86;25929;-75
2022/08/14 02:59:00;;;;;;;26.05;22.35;;;;;;;18.51;85.08;96696.05;1662462;86;25273;-76
2022/08/14 03:01:27;;;;;;;23.52;20.62;;;;;;;18.50;85.05;96695.23;1662504;86;25924;-76
2022/08/14 03:03:55;;;;;;;24.47;21.30;;;;;;;18.53;85.03;96702.06;1662361;86;25608;-75
2022/08/14 03:06:23;;;;;;;24.70;20.97;;;;;;;18.53;84.97;96695.23;1662357;86;27442;-75
2022/08/14 03:08:52;;;;;;;25.45;21.52;;;;;;;18.54;84.91;96698.23;1662444;86;25815;-76
2022/08/14 03:11:20;;;;;;;26.17;21.25;;;;;;;18.56;84.88;96699.59;1662255;86;25855;-76
2022/08/14 03:16:24;;;;;;;22.95;20.23;;;;;;;18.58;84.82;96696.62;1651636;86;25323;-75
2022/08/14 03:18:55;;;;;;;23.90;21.15;;;;;;;18.58;84.85;96696.62;1662538;86;27458;-76
2022/08/14 03:21:24;;;;;;;22.50;18.95;;;;;;;18.58;84.79;96693.89;1662388;86;25713;-76
2022/08/14 03:26:35;;;;;;;19.87;17.85;;;;;;;18.61;84.78;96690.57;1662594;86;25861;-75
2022/08/14 03:29:03;;;;;;;20.40;17.55;;;;;;;18.60;84.76;96689.75;1662519;86;25737;-75
2022/08/14 03:31:29;;;;;;;20.00;17.92;;;;;;;18.60;84.72;96691.67;1662472;85;26919;-76
2022/08/14 03:33:57;;;;;;;19.90;17.60;;;;;;;18.62;84.70;96688.11;1683174;84;26535;-75
2022/08/14 03:36:24;;;;;;;19.80;16.90;;;;;;;18.62;84.70;96688.11;1691965;84;25793;-75
2022/08/14 03:38:54;;;;;;;19.17;17.17;;;;;;;18.61;84.74;96687.84;1692164;84;53825;-76
2022/08/14 03:41:23;;;;;;;18.98;17.07;;;;;;;18.56;84.74;96689.21;1692002;84;25788;-76
2022/08/14 03:43:55;;;;;;;19.20;17.15;;;;;;;18.54;84.85;96688.67;1692340;84;27402;-75
2022/08/14 03:46:25;;;;;;;19.70;17.05;;;;;;;18.55;84.93;96696.59;1692123;84;25800;-76
2022/08/14 03:48:55;;;;;;;21.20;17.23;;;;;;;18.56;84.91;96689.21;1692306;84;25749;-76
2022/08/14 03:51:27;;;;;;;19.77;17.35;;;;;;;18.53;84.90;96689.77;1692390;84;26323;-78
2022/08/14 03:53:52;;;;;;;19.37;17.48;;;;;;;18.53;84.99;96691.13;1692295;84;25753;-77
2022/08/14 03:56:18;;;;;;;19.60;17.52;;;;;;;18.54;85.03;96690.03;1692146;84;27382;-75
2022/08/14 03:58:48;;;;;;;17.30;15.50;;;;;;;18.55;85.01;96687.58;1692217;84;25710;-77
2022/08/14 04:01:18;;;;;;;17.98;15.72;;;;;;;18.56;84.98;96691.40;1692304;84;25801;-77
2022/08/14 04:03:46;;;;;;;14.43;12.98;;;;;;;18.57;85.02;96691.67;1692049;84;25881;-77
2022/08/14 04:06:13;;;;;;;12.80;11.30;;;;;;;18.56;84.98;96690.58;1692242;84;26420;-79
2022/08/14 04:08:40;;;;;;;12.93;9.25;;;;;;;18.54;85.00;96686.76;1692085;84;28548;-75
2022/08/14 04:11:07;;;;;;;12.75;11.40;;;;;;;18.54;84.95;96687.30;1692200;84;25899;-75
2022/08/14 04:13:38;;;;;;;12.50;11.20;;;;;;;18.55;84.95;96693.05;1735340;81;25766;-75
2022/08/14 04:16:09;;;;;;;10.95;9.85;;;;;;;18.56;84.93;96696.05;1723079;83;26348;-76
2022/08/14 04:18:45;;;;;;;11.48;9.58;;;;;;;18.56;84.94;96696.05;1707101;84;25906;-77
2022/08/14 04:21:14;;;;;;;9.73;8.83;;;;;;;18.55;85.00;96688.94;1714940;83;27382;-77
2022/08/14 04:23:41;;;;;;;9.05;8.15;;;;;;;18.54;85.01;96688.13;1715000;83;26428;-76
2022/08/14 04:26:11;;;;;;;9.60;8.45;;;;;;;18.53;84.99;96691.13;1714973;83;25744;-75
2022/08/14 04:28:40;;;;;;;8.90;8.08;;;;;;;18.49;85.04;96695.50;1688338;83;25767;-76
2022/08/14 04:31:07;;;;;;;8.45;7.67;;;;;;;18.47;85.14;96695.81;1714794;83;25646;-76
2022/08/14 04:33:33;;;;;;;8.60;7.80;;;;;;;18.49;85.14;96695.50;1714999;83;28010;-75
2022/08/14 04:36:00;;;;;;;9.35;8.45;;;;;;;18.50;85.15;96695.78;1714628;83;25775;-78
2022/08/14 04:43:57;;;;;;;8.28;7.58;;;;;;;18.52;85.19;96696.33;1715063;83;26640;-76
2022/08/14 04:46:27;;;;;;;7.62;6.95;;;;;;;18.52;85.19;96698.51;1715002;83;27357;-76
2022/08/14 04:48:53;;;;;;;7.37;6.65;;;;;;;18.52;85.17;96699.88;1714721;83;26615;-78
2022/08/14 04:54:07;;;;;;;8.30;7.47;;;;;;;18.59;85.18;96695.53;1874564;76;25552;-77
2022/08/14 04:56:33;;;;;;;6.87;6.17;;;;;;;18.55;85.17;96691.67;1845341;77;25699;-76
2022/08/14 04:59:05;;;;;;;7.33;6.62;;;;;;;18.56;85.18;96690.58;1845703;77;28171;-76
2022/08/14 05:01:31;;;;;;;7.10;6.50;;;;;;;18.57;85.19;96689.48;1845069;77;25734;-77
2022/08/14 05:06:37;;;;;;;7.20;6.50;;;;;;;18.59;85.17;96690.06;1874433;76;25553;-74
2022/08/14 05:09:05;;;;;;;7.42;6.78;;;;;;;18.56;85.30;96683.75;1845407;77;25703;-75
2022/08/14 05:11:32;;;;;;;6.42;5.83;;;;;;;18.58;85.32;96684.32;1845568;77;27573;-75
2022/08/14 05:14:03;;;;;;;7.10;6.40;;;;;;;18.59;85.32;96679.95;1845424;77;25751;-74
2022/08/14 05:16:30;;;;;;;8.35;7.60;;;;;;;18.62;85.32;96684.02;1845633;77;25707;-74
2022/08/14 05:18:57;;;;;;;11.83;10.15;;;;;;;18.64;85.37;96685.92;1845522;77;25735;-75
2022/08/14 05:21:27;;;;;;;10.85;9.75;;;;;;;18.65;85.32;96684.83;1845691;77;25418;-75
2022/08/14 05:23:53;;;;;;;11.20;10.05;;;;;;;18.67;85.32;96685.37;1845340;77;27428;-74
2022/08/14 05:26:20;;;;;;;10.03;9.03;;;;;;;18.68;85.31;96684.27;1845602;77;25656;-74
2022/08/14 05:28:48;;;;;;;11.30;10.05;;;;;;;18.69;85.27;96681.81;1845327;77;25246;-74
2022/08/14 05:31:16;;;;;;;10.18;9.15;;;;;;;18.69;85.35;96685.37;1845299;77;25749;-77
2022/08/14 05:33:44;;;;;;;10.23;9.23;;;;;;;18.71;85.29;96690.55;1845635;77;25709;-76
2022/08/14 05:36:12;;;;;;;9.90;8.90;;;;;;;18.69;85.22;96684.55;1845850;77;27432;-76
2022/08/14 05:38:43;;;;;;;9.03;7.58;;;;;;;18.70;85.26;96682.09;1845690;77;25745;-76
2022/08/14 05:41:18;;;;;;;7.72;7.03;;;;;;;18.70;85.23;96681.53;1845614;77;25410;-76
2022/08/14 05:43:46;;;;;;;7.95;7.22;;;;;;;18.72;85.22;96685.33;1845675;77;25739;-77
2022/08/14 05:46:21;;;;;;;9.75;8.60;;;;;;;18.74;85.20;96689.16;1845511;77;25719;-76
2022/08/14 05:48:53;;;;;;;8.48;7.70;;;;;;;18.75;85.16;96683.41;1845332;77;27431;-76
2022/08/14 05:51:20;;;;;;;10.10;8.48;;;;;;;18.77;85.18;96686.69;1845491;77;26061;-77
2022/08/14 05:53:47;;;;;;;9.08;8.18;;;;;;;18.82;85.28;96689.41;1845616;77;26118;-76
2022/08/14 05:56:13;;;;;;;10.08;8.53;;;;;;;18.84;85.38;96692.66;1845564;77;25652;-76
2022/08/14 05:58:40;;;;;;;9.08;8.18;;;;;;;18.85;85.41;96694.84;1845503;77;25792;-76
2022/08/14 06:01:08;;;;;;;9.65;8.68;;;;;;;18.86;85.43;96691.01;1845550;77;27425;-77
2022/08/14 06:03:35;;;;;;;8.80;8.00;;;;;;;18.89;85.45;96700.84;1845602;77;26250;-76
2022/08/14 06:06:02;;;;;;;9.23;7.83;;;;;;;18.91;85.38;96702.75;1845261;77;25715;-76
2022/08/14 06:08:31;;;;;;;9.38;8.48;;;;;;;18.93;85.44;96703.30;1845604;77;25701;-74
2022/08/14 06:11:02;;;;;;;9.05;8.15;;;;;;;18.97;85.44;96698.06;1845683;77;25742;-74
2022/08/14 06:13:32;;;;;;;8.68;7.17;;;;;;;19.01;85.46;96694.48;1845451;77;27414;-74
2022/08/14 06:15:58;;;;;;;8.28;7.58;;;;;;;19.05;85.44;96694.20;1845488;77;25704;-73
2022/08/14 06:18:25;;;;;;;9.25;7.10;;;;;;;19.10;85.45;96702.09;1845015;77;25650;-74
2022/08/14 06:20:53;;;;;;;7.20;6.60;;;;;;;19.13;85.41;96696.06;1845131;77;25644;-73
2022/08/14 06:23:20;;;;;;;8.63;6.80;;;;;;;19.12;85.42;96693.87;1844913;77;25221;-73
2022/08/14 06:25:46;;;;;;;6.83;6.22;;;;;;;19.19;85.63;96701.78;1844986;77;27650;-74
2022/08/14 06:28:23;;;;;;;7.65;5.50;;;;;;;19.24;85.62;96697.08;1844404;77;25682;-73
2022/08/14 06:30:50;;;;;;;7.85;5.42;;;;;;;19.32;85.54;96695.69;1841227;77;25685;-73
2022/08/14 06:33:18;;;;;;;5.15;4.65;;;;;;;19.36;85.37;96696.73;1833862;77;25680;-73
2022/08/14 06:35:46;;;;;;;5.08;4.60;;;;;;;19.39;85.37;96697.53;1832112;77;25672;-73
2022/08/14 06:38:22;;;;;;;4.70;4.30;;;;;;;19.43;85.28;96695.88;1840244;77;28080;-73
2022/08/14 06:40:50;;;;;;;3.87;3.55;;;;;;;19.50;85.24;96696.94;1838288;77;26060;-73
2022/08/14 06:43:18;;;;;;;4.00;3.67;;;;;;;19.55;85.21;96690.89;1836578;77;25678;-74
2022/08/14 06:45:47;;;;;;;3.90;3.58;;;;;;;19.61;85.10;96685.63;1835699;77;25664;-72
2022/08/14 06:48:23;;;;;;;4.35;3.95;;;;;;;19.66;85.05;96684.77;1835613;78;25624;-73
2022/08/14 06:50:52;;;;;;;3.90;3.60;;;;;;;19.67;85.05;96683.13;1835599;78;27363;-73
2022/08/14 06:53:20;;;;;;;4.42;4.03;;;;;;;19.71;85.06;96689.64;1835853;77;25659;-74
2022/08/14 06:55:48;;;;;;;5.25;4.55;;;;;;;19.76;85.04;96695.09;1835591;77;25674;-73
2022/08/14 06:58:17;;;;;;;5.17;3.72;;;;;;;19.81;85.01;96690.65;1835618;78;25711;-74
2022/08/14 07:06:18;;;;;;;3.20;2.87;;;;;;;19.95;84.82;96690.25;1777003;80;25961;-73
2022/08/14 07:08:45;;;;;;;4.25;2.90;;;;;;;20.01;84.65;96689.11;1848539;77;26446;-74
2022/08/14 07:11:11;;;;;;;4.22;3.00;;;;;;;20.08;84.59;96685.47;1848596;77;25707;-74
2022/08/14 07:13:38;;;;;;;2.22;2.10;;;;;;;20.17;84.35;96688.39;1848627;77;25735;-74
2022/08/14 07:16:05;;;;;;;2.42;2.22;;;;;;;20.24;84.21;96688.88;1848623;77;28673;-74
2022/08/14 07:18:34;;;;;;;2.75;2.55;;;;;;;20.30;84.09;96682.22;1848492;77;25667;-75
2022/08/14 07:21:04;;;;;;;2.80;2.60;;;;;;;20.34;83.93;96689.58;1848684;77;25746;-75
2022/08/14 07:23:31;;;;;;;2.70;2.50;;;;;;;20.42;84.15;96682.11;1848617;77;25599;-75
2022/08/14 07:26:00;;;;;;;3.05;2.70;;;;;;;20.54;84.14;96680.88;1848647;77;26129;-74
2022/08/14 07:28:34;;;;;;;3.50;2.90;;;;;;;20.62;83.96;96682.44;1848539;77;27373;-75
2022/08/14 07:31:05;;;;;;;3.02;2.80;;;;;;;20.69;83.92;96682.08;1852881;77;25768;-75
2022/08/14 07:33:39;;;;;;;2.87;2.67;;;;;;;20.78;83.75;96677.01;1852449;77;25762;-76
2022/08/14 07:36:09;;;;;;;2.92;2.72;;;;;;;20.90;83.71;96676.58;1798090;79;25281;-74
2022/08/14 07:38:36;;;;;;;2.58;2.37;;;;;;;21.12;83.40;96677.40;1798044;79;25714;-76
2022/08/14 07:41:04;;;;;;;3.27;2.70;;;;;;;21.36;83.35;96681.47;1781783;80;27588;-75
2022/08/14 07:43:30;;;;;;;3.33;3.00;;;;;;;21.59;82.94;96691.55;1781757;80;26205;-75
2022/08/14 07:45:57;;;;;;;2.70;2.50;;;;;;;21.84;83.04;96684.27;1781615;80;25305;-75
2022/08/14 07:48:24;;;;;;;3.58;2.58;;;;;;;22.05;81.59;96683.92;1781670;80;25752;-75
2022/08/14 07:50:50;;;;;;;2.37;2.17;;;;;;;22.43;81.14;96681.29;1781545;80;25804;-75
2022/08/14 07:53:18;;;;;;;3.47;2.37;;;;;;;22.43;81.14;96681.29;1781687;80;27433;-76
2022/08/14 07:55:45;;;;;;;2.47;2.27;;;;;;;22.90;80.26;96683.39;1781409;80;25850;-76
2022/08/14 07:58:12;;;;;;;2.40;2.20;;;;;;;23.27;79.62;96676.80;1781872;80;25726;-75
2022/08/14 08:00:39;;;;;;;2.30;2.10;;;;;;;23.65;79.47;96682.82;1781777;80;26105;-76
2022/08/14 08:03:08;;;;;;;2.20;2.00;;;;;;;24.16;79.35;96678.75;1781796;80;25933;-76
2022/08/14 08:05:37;;;;;;;1.92;1.82;;;;;;;24.75;78.78;96682.97;1779681;80;27387;-77
2022/08/14 08:08:06;;;;;;;1.80;1.70;;;;;;;25.16;78.16;96673.50;1772921;80;25780;-76
2022/08/14 08:10:37;;;;;;;1.77;1.67;;;;;;;25.16;76.96;96672.12;1773123;80;25823;-75
2022/08/14 08:13:18;;;;;;;2.00;1.80;;;;;;;24.98;75.98;96674.05;1773082;80;25717;-75
2022/08/14 08:15:49;;;;;;;1.80;1.70;;;;;;;24.83;75.89;96677.22;1773262;80;25867;-75
2022/08/14 08:18:17;;;;;;;3.25;1.82;;;;;;;24.62;74.90;96674.23;1772851;80;27549;-76
2022/08/14 08:20:50;;;;;;;1.80;1.70;;;;;;;24.54;75.14;96675.00;1772937;80;25705;-75
2022/08/14 08:23:21;;;;;;;1.62;1.52;;;;;;;24.47;74.88;96673.28;1772900;80;25780;-77
2022/08/14 08:25:50;;;;;;;1.72;1.62;;;;;;;24.42;74.94;96672.84;1773111;80;25802;-76
2022/08/14 08:28:20;;;;;;;1.95;1.70;;;;;;;24.42;74.48;96667.33;1773155;80;25885;-75
2022/08/14 08:30:51;;;;;;;2.00;1.65;;;;;;;24.44;74.27;96665.63;1772837;80;27431;-76
2022/08/14 08:33:20;;;;;;;2.58;1.45;;;;;;;24.27;73.35;96665.79;1773221;80;25700;-76
2022/08/14 08:35:48;;;;;;;1.70;1.60;;;;;;;24.09;73.02;96666.00;1805314;79;25717;-75
2022/08/14 08:38:19;;;;;;;2.95;1.90;;;;;;;23.81;72.65;96663.39;1831238;78;25895;-75
2022/08/14 08:40:51;;;;;;;2.12;1.92;;;;;;;23.72;73.55;96665.28;1831066;78;25628;-75
2022/08/14 08:43:28;;;;;;;3.02;1.80;;;;;;;23.80;73.61;96659.00;1831062;78;26805;-76
2022/08/14 08:46:11;;;;;;;1.77;1.67;;;;;;;23.80;73.24;96663.70;1831081;78;25712;-76
2022/08/14 08:48:50;;;;;;;2.02;1.90;;;;;;;23.71;73.13;96658.14;1767040;80;25733;-75
2022/08/14 08:51:30;;;;;;;2.10;1.90;;;;;;;23.71;73.66;96662.27;1687012;85;25816;-77
2022/08/14 08:54:06;;;;;;;2.22;1.57;;;;;;;23.71;73.32;96662.27;1686362;85;25768;-75
2022/08/14 08:56:38;;;;;;;2.33;2.02;;;;;;;23.59;73.08;96655.13;1641825;87;27464;-74
2022/08/14 08:59:23;;;;;;;1.70;1.60;;;;;;;23.60;73.50;96654.00;1641740;87;26016;-77
2022/08/14 09:01:57;;;;;;;1.95;1.85;;;;;;;23.65;73.53;96659.41;1643997;87;25834;-75
2022/08/14 09:04:26;;;;;;;1.77;1.67;;;;;;;23.67;73.36;96652.42;1641678;87;25853;-77
2022/08/14 09:06:53;;;;;;;2.12;2.02;;;;;;;23.68;72.72;96654.63;1634250;87;25800;-73
2022/08/14 09:09:24;;;;;;;3.40;1.70;;;;;;;23.73;72.70;96656.45;1617159;88;27612;-76
2022/08/14 09:11:53;;;;;;;1.90;1.80;;;;;;;23.77;72.36;96652.77;1616474;88;25982;-75
2022/08/14 09:14:23;;;;;;;2.25;1.85;;;;;;;23.78;72.14;96650.26;1616054;88;25868;-75
2022/08/14 09:16:50;;;;;;;1.80;1.70;;;;;;;23.80;71.88;96651.30;1563722;90;26008;-74
2022/08/14 09:19:18;;;;;;;2.20;1.92;;;;;;;23.78;71.97;96651.64;1566502;90;25778;-75
2022/08/14 09:21:45;;;;;;;2.27;1.85;;;;;;;23.73;72.24;96649.00;1549964;91;28347;-77
2022/08/14 09:24:14;;;;;;;2.00;1.90;;;;;;;23.73;72.27;96654.51;1549222;92;25775;-75
2022/08/14 09:26:42;;;;;;;1.92;1.82;;;;;;;23.74;71.94;96658.89;1550084;92;25907;-76
2022/08/14 09:29:11;;;;;;;2.12;1.92;;;;;;;23.72;71.59;96650.13;1549928;92;25842;-77
2022/08/14 09:31:44;;;;;;;2.87;1.67;;;;;;;23.75;71.41;96648.13;1550605;92;25794;-77
2022/08/14 09:34:34;;;;;;;1.77;1.40;;;;;;;23.82;71.40;96647.11;1547119;92;27503;-78
2022/08/14 09:37:35;;;;;;;1.80;1.70;;;;;;;23.86;71.23;96650.05;1546633;92;25969;-77
2022/08/14 09:40:45;;;;;;;1.82;1.72;;;;;;;23.79;71.67;96649.10;1595547;89;25820;-76
2022/08/14 09:43:34;;;;;;;1.77;1.67;;;;;;;23.75;72.17;96654.20;1585003;89;25809;-78
2022/08/14 09:46:07;;;;;;;2.00;1.90;;;;;;;23.72;72.34;96652.88;1579219;89;25854;-77
2022/08/14 09:48:33;;;;;;;2.52;1.90;;;;;;;23.69;72.60;96662.58;1582334;90;27411;-76
2022/08/14 09:51:01;;;;;;;2.80;1.77;;;;;;;23.70;72.82;96655.13;1595375;89;25853;-75
2022/08/14 09:53:43;;;;;;;4.00;1.95;;;;;;;23.71;72.93;96660.89;1595852;88;26570;-75
2022/08/14 09:56:10;;;;;;;1.60;1.50;;;;;;;23.71;72.89;96662.27;1608904;87;26264;-75
2022/08/14 09:58:44;;;;;;;1.90;1.80;;;;;;;23.64;72.53;96660.53;1595628;88;25939;-75
2022/08/14 10:01:17;;;;;;;1.90;1.80;;;;;;;23.57;72.64;96664.27;1569532;90;27262;-76
2022/08/14 10:06:26;;;;;;;2.55;2.10;;;;;;;23.56;72.45;96654.37;1517300;94;25913;-77
2022/08/14 10:09:01;;;;;;;1.92;1.82;;;;;;;23.56;72.31;96661.26;1517920;94;25873;-75
2022/08/14 10:11:35;;;;;;;2.37;2.17;;;;;;;23.52;72.23;96650.07;1515576;94;25777;-76
2022/08/14 10:14:17;;;;;;;2.10;1.90;;;;;;;23.50;72.43;96655.61;1518017;94;28421;-74
2022/08/14 10:16:53;;;;;;;2.08;1.98;;;;;;;23.49;72.60;96651.22;1519383;94;25898;-75
2022/08/14 10:19:27;;;;;;;2.65;2.30;;;;;;;23.47;72.57;96647.95;1538217;88;25822;-76
2022/08/14 10:22:09;;;;;;;2.08;1.98;;;;;;;23.42;72.50;96642.59;1614451;88;25841;-75
2022/08/14 10:24:43;;;;;;;2.75;2.55;;;;;;;23.40;72.71;96636.58;1626791;87;25828;-76
2022/08/14 10:27:22;;;;;;;2.85;2.62;;;;;;;23.40;73.10;96635.20;1626723;87;27451;-75
2022/08/14 10:29:56;;;;;;;3.08;2.77;;;;;;;23.51;73.31;96639.36;1626712;87;25996;-75
2022/08/14 10:32:22;;;;;;;3.08;2.80;;;;;;;23.62;73.23;96636.61;1598398;89;25726;-76
2022/08/14 10:34:49;;;;;;;3.02;2.80;;;;;;;23.68;72.53;96640.84;1598349;89;25807;-76
2022/08/14 10:37:18;;;;;;;2.95;2.75;;;;;;;23.84;72.61;96645.42;1598398;89;26560;-77
2022/08/14 10:39:58;;;;;;;3.75;3.45;;;;;;;24.02;72.21;96641.09;1598482;89;27408;-76
2022/08/14 10:42:38;;;;;;;3.00;2.80;;;;;;;24.15;71.51;96644.07;1570019;91;25785;-77
2022/08/14 10:45:25;;;;;;;4.20;2.77;;;;;;;24.28;71.19;96640.41;1567811;91;25983;-75
2022/08/14 10:47:52;;;;;;;2.60;2.40;;;;;;;24.37;70.80;96639.91;1504700;95;25940;-75
2022/08/14 10:50:31;;;;;;;2.33;2.22;;;;;;;24.57;70.85;96643.45;1504883;95;25830;-76
2022/08/14 10:53:02;;;;;;;3.62;2.60;;;;;;;24.72;70.33;96643.59;1503833;95;27465;-75
2022/08/14 10:55:39;;;;;;;3.17;2.87;;;;;;;24.81;70.00;96638.90;1504690;95;25928;-76
2022/08/14 10:58:10;;;;;;;2.70;2.50;;;;;;;24.89;69.78;96632.57;1455017;97;26047;-78
2022/08/14 11:00:40;;;;;;;3.10;2.80;;;;;;;25.18;69.97;96630.63;1468158;97;26551;-76
2022/08/14 11:03:16;;;;;;;2.83;2.62;;;;;;;25.48;70.81;96632.97;1474562;97;25797;-76
2022/08/14 11:05:49;;;;;;;3.08;2.80;;;;;;;25.82;70.42;96636.32;1473341;97;26870;-77
2022/08/14 11:08:21;;;;;;;4.03;3.72;;;;;;;26.07;69.19;96629.92;1471504;97;25887;-77
2022/08/14 11:10:58;;;;;;;3.65;3.35;;;;;;;26.09;69.03;96632.33;1474308;96;25981;-75
2022/08/14 11:13:28;;;;;;;3.72;3.42;;;;;;;26.08;69.07;96633.50;1479236;96;25886;-75
2022/08/14 11:16:00;;;;;;;4.10;3.70;;;;;;;26.03;68.86;96627.56;1479308;95;25945;-76
2022/08/14 11:18:29;;;;;;;5.85;3.90;;;;;;;25.91;68.40;96632.16;1479386;95;28279;-76
2022/08/14 11:20:59;;;;;;;4.40;4.00;;;;;;;25.82;68.53;96627.46;1477550;96;25384;-77
2022/08/14 11:23:29;;;;;;;9.45;4.75;;;;;;;25.73;68.24;96631.36;1477455;96;25997;-75
2022/08/14 11:25:58;;;;;;;5.20;4.70;;;;;;;25.54;67.78;96632.25;1474803;97;26210;-75
2022/08/14 11:28:30;;;;;;;4.47;4.12;;;;;;;25.45;67.96;96628.93;1476508;94;25865;-76
2022/08/14 11:30:58;;;;;;;4.65;4.22;;;;;;;25.51;68.37;96625.98;1500971;91;27626;-76
2022/08/14 11:33:31;;;;;;;4.90;4.25;;;;;;;25.64;68.50;96631.94;1570127;91;25870;-76
2022/08/14 11:36:00;;;;;;;4.60;4.20;;;;;;;25.74;67.90;96631.03;1570095;90;25888;-78
2022/08/14 11:38:39;;;;;;;5.17;4.67;;;;;;;25.77;67.83;96627.62;1570317;90;25868;-76
2022/08/14 11:41:08;;;;;;;5.50;4.22;;;;;;;25.74;67.46;96631.60;1570035;91;25943;-79
2022/08/14 11:43:47;;;;;;;4.67;3.92;;;;;;;25.75;67.38;96629.89;1570190;89;27467;-76
2022/08/14 11:46:15;;;;;;;5.15;4.58;;;;;;;25.83;67.74;96631.85;1570107;90;26080;-78
2022/08/14 11:48:51;;;;;;;5.22;4.70;;;;;;;25.95;67.32;96622.88;1569945;91;25966;-78
2022/08/14 11:53:56;;;;;;;5.60;4.47;;;;;;;26.28;66.92;96630.61;1546402;90;25852;-76
2022/08/14 11:56:24;;;;;;;5.08;4.50;;;;;;;26.27;66.53;96632.53;1592671;90;27490;-76
2022/08/14 11:58:53;;;;;;;5.62;4.37;;;;;;;26.39;66.62;96626.34;1592465;90;25897;-77
2022/08/14 12:01:30;;;;;;;5.12;4.72;;;;;;;26.53;66.64;96628.31;1673384;85;25825;-75
2022/08/14 12:04:13;;;;;;;5.03;4.55;;;;;;;26.78;66.65;96623.22;1673468;85;25822;-75
2022/08/14 12:06:54;;;;;;;5.05;4.40;;;;;;;26.90;65.58;96624.70;1671800;85;25851;-76
2022/08/14 12:09:34;;;;;;;7.20;4.30;;;;;;;26.98;64.86;96616.69;1637652;87;27442;-79
2022/08/14 12:12:16;;;;;;;4.62;4.22;;;;;;;27.15;65.58;96622.12;1575375;91;25812;-76
2022/08/14 12:14:58;;;;;;;4.37;4.08;;;;;;;27.31;65.25;96616.77;1579033;88;25875;-76